Time;durP1;ratioP1;P1;durP2;ratioP2;P2;SDS_P1;SDS_P2;PMS_P1;PMS_P2;Temp;Humidity;BMP_temperature;BMP_pressure;BME280_temperature;BME280_humidity;BME280_pressure;Samples;Min_cycle;Max_cycle;Signal;HPM_P1;HPM_P2
2022/03/12 00:00:00;;;;;;;90.53;54.30;;;;;;;22.43;45.97;103117.97;5075400;28;20025;-60
2022/03/12 00:02:29;;;;;;;85.97;52.03;;;;;;;22.39;45.69;103112.91;5075049;28;20043;-60
2022/03/12 00:04:54;;;;;;;85.95;49.88;;;;;;;22.37;45.98;103110.31;5075277;28;20032;-60
2022/03/12 00:07:20;;;;;;;85.70;51.80;;;;;;;22.36;46.03;103111.34;5074974;28;20063;-60
2022/03/12 00:09:45;;;;;;;93.38;53.25;;;;;;;22.39;46.04;103105.56;5075216;28;20039;-60
2022/03/12 00:12:13;;;;;;;82.47;49.35;;;;;;;22.71;46.11;103109.88;5073653;28;20456;-60
2022/03/12 00:14:39;;;;;;;97.72;55.25;;;;;;;23.02;47.92;103108.72;5075090;28;20047;-60
2022/03/12 00:17:05;;;;;;;97.35;57.75;;;;;;;23.14;49.67;103105.78;5074829;28;20471;-60
2022/03/12 00:19:31;;;;;;;111.07;59.80;;;;;;;23.25;51.70;103102.84;5075378;28;20016;-60
2022/03/12 00:21:58;;;;;;;119.22;63.55;;;;;;;23.32;52.85;103109.47;5075052;28;20226;-60
2022/03/12 00:24:25;;;;;;;136.63;74.57;;;;;;;23.27;54.34;103103.56;5074489;28;20068;-60
2022/03/12 00:26:50;;;;;;;141.23;78.10;;;;;;;23.20;55.57;103110.69;5074913;28;20017;-60
2022/03/12 00:29:16;;;;;;;157.50;83.88;;;;;;;23.21;55.76;103109.66;5074612;28;20035;-60
2022/03/12 00:31:46;;;;;;;148.15;79.47;;;;;;;23.22;56.13;103105.91;5074177;28;20049;-60
2022/03/12 00:34:13;;;;;;;163.27;85.95;;;;;;;23.19;57.29;103103.47;5074607;28;20031;-61
2022/03/12 00:36:39;;;;;;;171.02;91.72;;;;;;;23.23;57.09;103110.38;5074682;28;20032;-60
2022/03/12 00:39:08;;;;;;;178.77;95.28;;;;;;;23.21;57.83;103106.91;5074739;28;20036;-59
2022/03/12 00:41:34;;;;;;;174.90;94.15;;;;;;;23.23;57.61;103105.75;5074496;28;20151;-60
2022/03/12 00:43:59;;;;;;;175.95;92.82;;;;;;;23.30;57.14;103106.88;5073275;28;20048;-60
2022/03/12 00:46:25;;;;;;;181.57;95.38;;;;;;;23.28;57.77;103103.41;5073726;28;20493;-60
2022/03/12 00:48:50;;;;;;;171.25;89.90;;;;;;;23.27;56.61;103111.78;5074470;28;20066;-59
2022/03/12 00:51:16;;;;;;;174.93;98.07;;;;;;;23.27;57.03;103101.69;5074174;28;20028;-60
2022/03/12 00:53:41;;;;;;;179.48;96.45;;;;;;;23.31;56.97;103096.75;5074386;28;20062;-60
2022/03/12 00:56:08;;;;;;;184.70;96.25;;;;;;;23.27;56.69;103098.94;5074159;28;20017;-60
2022/03/12 00:58:35;;;;;;;184.63;99.82;;;;;;;23.34;56.66;103101.94;5074397;28;20044;-60
2022/03/12 01:01:01;;;;;;;182.85;97.13;;;;;;;23.37;56.90;103109.91;5074214;28;20410;-60
2022/03/12 01:03:27;;;;;;;183.93;100.95;;;;;;;23.33;56.32;103100.19;5072660;28;20103;-60
2022/03/12 01:05:57;;;;;;;188.02;100.50;;;;;;;23.40;56.10;103095.88;5074108;28;20375;-59
2022/03/12 01:08:23;;;;;;;169.02;94.57;;;;;;;23.37;55.88;103099.78;5074005;28;20067;-60
2022/03/12 01:10:49;;;;;;;170.95;92.63;;;;;;;23.39;55.42;103110.59;5074080;28;20464;-60
2022/03/12 01:13:15;;;;;;;176.63;95.78;;;;;;;23.39;55.27;103111.47;5073781;28;20107;-60
2022/03/12 01:15:41;;;;;;;174.23;95.78;;;;;;;23.45;54.91;103093.50;5073682;28;20494;-60
2022/03/12 01:18:13;;;;;;;162.48;89.80;;;;;;;23.40;54.89;103090.38;5073764;28;20040;-61
2022/03/12 01:20:40;;;;;;;154.20;88.45;;;;;;;23.51;54.69;103081.91;5073758;28;20095;-60
2022/03/12 01:23:07;;;;;;;179.50;96.07;;;;;;;23.45;55.50;103088.03;5073784;28;20031;-59
2022/03/12 01:25:32;;;;;;;155.07;89.55;;;;;;;23.48;54.91;103086.84;5073525;28;20594;-60
2022/03/12 01:27:58;;;;;;;165.27;91.35;;;;;;;23.51;54.28;103092.03;5073701;28;20099;-60
2022/03/12 01:30:29;;;;;;;164.00;91.47;;;;;;;23.54;54.06;103087.13;5073066;28;20036;-60
2022/03/12 01:32:56;;;;;;;160.45;89.55;;;;;;;23.52;54.29;103089.16;5073611;28;20094;-60
2022/03/12 01:35:21;;;;;;;164.25;91.68;;;;;;;23.53;53.94;103084.53;5073372;28;20457;-60
2022/03/12 01:37:47;;;;;;;164.02;90.03;;;;;;;23.61;53.74;103070.94;5073467;28;20151;-60
2022/03/12 01:40:14;;;;;;;173.07;93.88;;;;;;;23.52;53.46;103075.44;5073184;28;20471;-60
2022/03/12 01:42:39;;;;;;;178.10;97.03;;;;;;;23.51;53.60;103076.44;5072546;28;20020;-60
2022/03/12 01:45:07;;;;;;;153.10;89.70;;;;;;;23.52;52.98;103078.19;5073287;28;20070;-59
2022/03/12 01:47:33;;;;;;;155.77;88.00;;;;;;;23.60;52.95;103080.19;5072852;28;20028;-59
2022/03/12 01:49:58;;;;;;;156.52;91.78;;;;;;;23.62;53.40;103073.50;5073277;28;20047;-61
2022/03/12 01:52:25;;;;;;;159.00;87.88;;;;;;;23.59;53.73;103067.47;5072896;28;20519;-61
2022/03/12 01:54:51;;;;;;;165.00;90.88;;;;;;;23.60;53.49;103072.81;5073118;28;20017;-60
2022/03/12 01:57:16;;;;;;;167.07;93.85;;;;;;;23.59;53.01;103068.34;5072877;28;20112;-61
2022/03/12 01:59:41;;;;;;;152.90;87.30;;;;;;;23.61;52.70;103066.31;5073119;28;20410;-60
2022/03/12 02:02:12;;;;;;;163.82;89.00;;;;;;;23.62;52.31;103065.28;5072457;28;20074;-60
2022/03/12 02:04:37;;;;;;;159.95;88.70;;;;;;;23.65;52.49;103059.47;5072090;28;20027;-60
2022/03/12 02:07:03;;;;;;;158.02;89.18;;;;;;;23.68;53.20;103055.56;5072455;28;20021;-60
2022/03/12 02:09:28;;;;;;;164.60;91.55;;;;;;;23.65;52.76;103056.72;5072721;28;20388;-60
2022/03/12 02:11:54;;;;;;;164.50;90.25;;;;;;;23.61;52.40;103055.31;5071582;28;20475;-60
2022/03/12 02:14:23;;;;;;;165.75;91.95;;;;;;;23.58;52.20;103055.63;5072380;28;20399;-60
2022/03/12 02:16:53;;;;;;;152.05;83.70;;;;;;;23.62;52.01;103050.69;5072818;28;20024;-60
2022/03/12 02:19:20;;;;;;;182.40;100.03;;;;;;;23.61;52.12;103049.81;5072494;28;20375;-60
2022/03/12 02:21:53;;;;;;;161.52;89.20;;;;;;;23.68;51.87;103055.56;5072742;28;20027;-59
2022/03/12 02:24:20;;;;;;;153.10;87.35;;;;;;;23.63;51.84;103042.28;5072326;28;20103;-60
2022/03/12 02:26:47;;;;;;;160.02;88.20;;;;;;;23.58;52.28;103038.28;5072673;28;20138;-60
2022/03/12 02:29:18;;;;;;;161.52;90.00;;;;;;;23.69;51.69;103038.09;5072442;28;20028;-60
2022/03/12 02:31:46;;;;;;;169.90;91.97;;;;;;;23.63;52.07;103036.81;5072466;28;20074;-60
2022/03/12 02:34:13;;;;;;;158.38;91.45;;;;;;;23.65;52.70;103032.00;5072240;28;20052;-60
2022/03/12 02:36:40;;;;;;;161.30;89.40;;;;;;;23.63;52.00;103031.31;5072243;28;20024;-60
2022/03/12 02:39:07;;;;;;;170.23;94.82;;;;;;;23.67;51.99;103031.84;5072496;28;20074;-59
2022/03/12 02:41:32;;;;;;;158.38;88.95;;;;;;;23.71;52.01;103027.81;5071620;28;20027;-60
2022/03/12 02:43:58;;;;;;;164.57;91.30;;;;;;;23.64;52.16;103033.03;5072240;28;20032;-60
2022/03/12 02:46:28;;;;;;;168.68;93.32;;;;;;;23.58;51.42;103027.31;5072025;28;20024;-60
2022/03/12 02:48:54;;;;;;;164.07;91.03;;;;;;;23.59;51.78;103026.28;5072470;28;20024;-60
2022/03/12 02:51:25;;;;;;;154.65;91.20;;;;;;;23.62;51.85;103034.22;5072108;28;20020;-61
2022/03/12 02:53:51;;;;;;;155.00;85.93;;;;;;;23.62;52.16;103029.59;5070831;28;20029;-60
2022/03/12 02:56:18;;;;;;;153.88;86.25;;;;;;;23.67;52.16;103026.38;5071965;28;20029;-60
2022/03/12 02:58:44;;;;;;;154.70;87.78;;;;;;;23.64;51.97;103030.28;5072352;28;20519;-61
2022/03/12 03:01:14;;;;;;;154.70;89.22;;;;;;;23.64;51.32;103027.53;5072195;28;20179;-60
2022/03/12 03:03:43;;;;;;;168.52;90.75;;;;;;;23.63;51.86;103024.94;5072245;28;20021;-60
2022/03/12 03:06:09;;;;;;;164.00;90.15;;;;;;;23.66;51.38;103028.25;5071719;28;20057;-60
2022/03/12 03:08:37;;;;;;;152.05;88.65;;;;;;;23.69;51.63;103025.22;5072155;28;20040;-60
2022/03/12 03:11:12;;;;;;;151.73;89.38;;;;;;;23.72;51.59;103024.03;5072272;28;20028;-60
2022/03/12 03:13:43;;;;;;;155.15;89.88;;;;;;;23.72;51.57;103028.66;5072173;28;20028;-60
2022/03/12 03:16:18;;;;;;;155.13;88.75;;;;;;;23.74;51.50;103021.13;5072261;28;20024;-60
2022/03/12 03:18:50;;;;;;;164.93;91.72;;;;;;;23.72;51.21;103024.03;5070899;28;20064;-60
2022/03/12 03:21:16;;;;;;;162.02;90.25;;;;;;;23.64;51.10;103022.06;5071933;28;20147;-60
2022/03/12 03:23:44;;;;;;;156.27;90.28;;;;;;;23.62;52.05;103024.09;5072141;28;20025;-60
2022/03/12 03:26:09;;;;;;;171.02;92.30;;;;;;;23.66;51.62;103019.16;5071806;28;20040;-60
2022/03/12 03:28:35;;;;;;;162.48;88.28;;;;;;;23.72;51.79;103028.66;5071931;28;20032;-60
2022/03/12 03:31:04;;;;;;;159.70;88.97;;;;;;;23.72;51.59;103028.66;5072016;28;20045;-60
2022/03/12 03:33:29;;;;;;;163.25;93.60;;;;;;;23.64;51.56;103027.53;5071733;28;20412;-61
2022/03/12 03:35:55;;;;;;;155.82;89.20;;;;;;;23.66;51.65;103028.25;5071727;28;20098;-60
2022/03/12 03:38:20;;;;;;;177.48;97.32;;;;;;;23.66;51.71;103025.50;5071294;28;20118;-60
2022/03/12 03:40:47;;;;;;;162.05;93.03;;;;;;;23.67;51.44;103027.22;5071925;28;20395;-60
2022/03/12 03:43:15;;;;;;;154.77;87.65;;;;;;;23.70;51.75;103023.34;5071748;28;20107;-60
2022/03/12 03:45:43;;;;;;;165.93;93.57;;;;;;;23.69;50.79;103025.22;5071844;28;20032;-60
2022/03/12 03:48:15;;;;;;;158.20;90.30;;;;;;;23.71;51.90;103027.81;5071513;28;20408;-60
2022/03/12 03:50:42;;;;;;;156.10;89.10;;;;;;;23.69;51.10;103025.22;5071870;28;20036;-60
2022/03/12 03:53:10;;;;;;;159.63;91.32;;;;;;;23.68;51.22;103029.00;5071745;28;20521;-60
2022/03/12 03:55:36;;;;;;;163.05;91.03;;;;;;;23.68;51.12;103023.50;5071662;28;20079;-60
2022/03/12 03:58:03;;;;;;;154.52;85.90;;;;;;;23.79;50.84;103025.13;5071726;28;20476;-60
2022/03/12 04:00:29;;;;;;;160.30;88.63;;;;;;;23.67;51.31;103020.88;5071306;28;20568;-60
2022/03/12 04:03:08;;;;;;;158.70;90.88;;;;;;;23.64;51.92;103018.44;5071698;28;20044;-60
2022/03/12 04:05:38;;;;;;;157.40;89.90;;;;;;;23.63;51.52;103020.31;5071837;28;20021;-59
2022/03/12 04:08:07;;;;;;;156.18;89.05;;;;;;;23.69;51.62;103025.22;5075267;28;20093;-60
2022/03/12 04:10:34;;;;;;;173.45;97.82;;;;;;;23.69;51.53;103029.84;5075077;28;20502;-61
2022/03/12 04:13:00;;;;;;;171.27;92.90;;;;;;;23.72;51.34;103028.66;5074885;28;20024;-59
2022/03/12 04:15:26;;;;;;;164.65;91.10;;;;;;;23.63;50.94;103024.94;5074928;28;20067;-60
2022/03/12 04:17:53;;;;;;;164.02;93.20;;;;;;;23.67;50.95;103027.22;5075108;28;20064;-60
2022/03/12 04:20:19;;;;;;;163.25;90.55;;;;;;;23.66;50.67;103020.00;5074617;28;20016;-60
2022/03/12 04:22:48;;;;;;;163.65;93.55;;;;;;;23.70;51.42;103015.97;5075058;28;20464;-60
2022/03/12 04:25:14;;;;;;;168.23;90.35;;;;;;;23.69;50.40;103025.22;5074687;28;20020;-60
2022/03/12 04:27:44;;;;;;;168.48;92.15;;;;;;;23.67;51.58;103020.88;5074927;28;20065;-60
2022/03/12 04:30:12;;;;;;;160.95;91.38;;;;;;;23.78;51.41;103028.03;5074588;28;20463;-60
2022/03/12 04:32:38;;;;;;;162.70;92.97;;;;;;;23.65;51.06;103017.41;5074568;28;20455;-60
2022/03/12 04:35:05;;;;;;;163.48;92.05;;;;;;;23.64;50.64;103027.53;5074530;28;20384;-60
2022/03/12 04:37:31;;;;;;;165.65;93.80;;;;;;;23.68;51.01;103028.09;5074531;28;20328;-60
2022/03/12 04:39:57;;;;;;;152.40;88.30;;;;;;;23.73;51.40;103025.75;5074724;28;20044;-60
2022/03/12 04:42:22;;;;;;;161.65;92.05;;;;;;;23.75;51.22;103022.84;5074233;28;20126;-60
2022/03/12 04:44:48;;;;;;;165.63;90.70;;;;;;;23.76;51.22;103019.09;5074634;28;20029;-60
2022/03/12 04:47:13;;;;;;;149.40;88.43;;;;;;;23.70;50.77;103026.94;5074253;28;20379;-60
2022/03/12 04:49:39;;;;;;;158.15;88.47;;;;;;;23.72;51.07;103023.19;5074475;28;20027;-60
2022/03/12 04:52:05;;;;;;;167.43;91.00;;;;;;;23.73;51.14;103019.41;5074399;28;20507;-60
2022/03/12 04:54:31;;;;;;;167.90;91.25;;;;;;;23.69;51.30;103025.22;5074131;28;20051;-59
2022/03/12 04:56:57;;;;;;;161.35;89.93;;;;;;;23.70;51.00;103029.69;5074400;28;20028;-60
2022/03/12 04:59:23;;;;;;;157.82;87.93;;;;;;;23.66;50.94;103033.75;5074144;28;20074;-60
2022/03/12 05:01:48;;;;;;;160.07;90.38;;;;;;;23.77;50.12;103038.16;5074253;28;20025;-59
2022/03/12 05:04:14;;;;;;;164.00;91.45;;;;;;;24.02;49.85;103042.03;5073466;28;20052;-60
2022/03/12 05:06:39;;;;;;;153.23;88.53;;;;;;;24.04;50.07;103034.50;5073883;28;20025;-60
2022/03/12 05:09:05;;;;;;;157.70;90.00;;;;;;;24.06;50.07;103042.59;5074158;28;20056;-60
2022/03/12 05:11:32;;;;;;;164.75;90.93;;;;;;;24.05;49.36;103030.75;5073899;28;20395;-61
2022/03/12 05:13:58;;;;;;;162.15;90.13;;;;;;;24.19;49.57;103035.69;5073983;28;20031;-60
2022/03/12 05:16:24;;;;;;;151.75;88.93;;;;;;;24.19;49.29;103035.69;5073617;28;20021;-60
2022/03/12 05:18:49;;;;;;;144.95;85.57;;;;;;;24.25;48.86;103039.69;5074191;28;20036;-60
2022/03/12 05:21:15;;;;;;;140.40;80.90;;;;;;;24.23;48.70;103038.97;5073735;28;20017;-60
2022/03/12 05:23:40;;;;;;;147.40;83.80;;;;;;;24.34;48.86;103040.63;5073821;28;20557;-60
2022/03/12 05:26:05;;;;;;;142.57;78.90;;;;;;;24.37;48.93;103034.84;5073426;28;20033;-59
2022/03/12 05:28:32;;;;;;;136.60;80.50;;;;;;;24.38;48.51;103031.06;5073755;28;20082;-61
2022/03/12 05:31:00;;;;;;;141.32;79.75;;;;;;;24.32;48.83;103031.69;5073491;28;20048;-60
2022/03/12 05:33:27;;;;;;;140.02;80.18;;;;;;;24.40;48.84;103045.50;5073442;28;20056;-60
2022/03/12 05:35:53;;;;;;;140.05;78.97;;;;;;;24.37;48.87;103035.69;5073328;28;20459;-60
2022/03/12 05:38:19;;;;;;;130.25;77.22;;;;;;;24.34;48.23;103040.63;5073083;28;20028;-60
2022/03/12 05:40:46;;;;;;;134.40;79.18;;;;;;;24.38;48.88;103036.56;5073794;28;20395;-60
2022/03/12 05:43:15;;;;;;;141.90;78.50;;;;;;;24.44;48.38;103041.41;5073652;28;20042;-60
2022/03/12 05:45:45;;;;;;;132.68;74.15;;;;;;;24.45;48.64;103040.38;5073228;28;20518;-60
2022/03/12 05:48:11;;;;;;;129.95;74.95;;;;;;;24.49;48.45;103044.53;5073033;28;20028;-60
2022/03/12 05:50:37;;;;;;;130.75;75.28;;;;;;;24.46;48.19;103044.88;5073450;28;20028;-60
2022/03/12 05:53:05;;;;;;;132.43;76.28;;;;;;;24.50;48.31;103047.13;5073229;28;20062;-60
2022/03/12 05:55:30;;;;;;;131.40;75.07;;;;;;;24.48;48.85;103049.19;5072940;28;20020;-61
2022/03/12 05:57:56;;;;;;;123.10;71.55;;;;;;;24.59;48.10;103053.56;5073155;28;20032;-61
2022/03/12 06:00:21;;;;;;;129.88;76.63;;;;;;;24.54;47.56;103048.56;5072631;28;20032;-60
2022/03/12 06:02:52;;;;;;;131.35;74.75;;;;;;;24.50;47.05;103049.00;5073037;28;20055;-60
2022/03/12 06:05:24;;;;;;;128.57;72.65;;;;;;;24.59;48.66;103050.81;5072390;28;20068;-60
2022/03/12 06:07:50;;;;;;;121.53;72.28;;;;;;;24.58;47.18;103049.09;5073009;28;20027;-60
2022/03/12 06:10:21;;;;;;;131.43;73.68;;;;;;;24.60;48.04;103041.53;5071170;28;20119;-61
2022/03/12 06:12:48;;;;;;;123.43;72.45;;;;;;;24.57;47.49;103041.88;5072871;28;20029;-60
2022/03/12 06:15:17;;;;;;;121.50;73.45;;;;;;;24.62;47.94;103045.00;5072617;28;20021;-60
2022/03/12 06:17:44;;;;;;;127.40;72.93;;;;;;;24.64;47.52;103036.56;5072762;28;20029;-60
2022/03/12 06:20:10;;;;;;;119.78;71.13;;;;;;;24.63;47.36;103024.72;5072545;28;20070;-60
2022/03/12 06:22:37;;;;;;;124.93;70.80;;;;;;;24.67;47.55;103037.09;5072584;28;20020;-60
2022/03/12 06:25:04;;;;;;;128.05;69.78;;;;;;;24.65;47.74;103038.31;5072752;28;20108;-60
2022/03/12 06:27:29;;;;;;;126.20;72.20;;;;;;;24.62;48.10;103031.25;5072109;28;20066;-60
2022/03/12 06:29:55;;;;;;;116.45;68.93;;;;;;;24.70;47.91;103024.94;5072156;28;20028;-60
2022/03/12 06:32:21;;;;;;;121.93;72.35;;;;;;;24.66;48.08;103029.88;5072033;28;20067;-60
2022/03/12 06:34:46;;;;;;;119.20;71.88;;;;;;;24.67;47.46;103037.09;5072854;28;20033;-60
2022/03/12 06:37:12;;;;;;;124.43;70.95;;;;;;;24.62;47.87;103036.75;5072437;28;20066;-61
2022/03/12 06:39:37;;;;;;;125.13;70.18;;;;;;;24.60;47.35;103022.28;5072450;28;20391;-60
2022/03/12 06:42:03;;;;;;;132.00;75.00;;;;;;;24.58;47.15;103032.59;5072487;28;20484;-60
2022/03/12 06:44:33;;;;;;;127.93;71.00;;;;;;;24.67;47.81;103031.63;5072335;28;20025;-60
2022/03/12 06:47:01;;;;;;;118.53;69.82;;;;;;;24.66;47.09;103027.13;5072451;28;20048;-60
2022/03/12 06:49:27;;;;;;;124.07;68.43;;;;;;;24.69;48.02;103034.19;5072147;28;20050;-60
2022/03/12 06:51:53;;;;;;;118.57;68.07;;;;;;;24.72;48.04;103029.25;5072507;28;20111;-60
2022/03/12 06:54:19;;;;;;;117.93;69.95;;;;;;;24.69;47.00;103032.34;5071983;28;20496;-60
2022/03/12 06:56:45;;;;;;;121.45;70.90;;;;;;;24.77;47.79;103037.03;5072453;28;20024;-60
2022/03/12 06:59:11;;;;;;;119.38;70.90;;;;;;;24.70;47.21;103045.06;5071970;28;20024;-60
2022/03/12 07:01:36;;;;;;;118.53;69.32;;;;;;;24.61;47.67;103043.25;5072222;28;20435;-60
2022/03/12 07:04:02;;;;;;;114.00;65.78;;;;;;;24.70;47.27;103046.94;5072336;28;20406;-60
2022/03/12 07:06:27;;;;;;;109.00;68.80;;;;;;;24.69;47.89;103048.84;5071760;28;20039;-60
2022/03/12 07:08:52;;;;;;;123.47;70.70;;;;;;;24.62;47.06;103045.00;5072278;28;20028;-59
2022/03/12 07:11:20;;;;;;;118.63;67.35;;;;;;;24.74;47.43;103048.34;5071939;28;20463;-60
2022/03/12 07:13:45;;;;;;;119.00;69.30;;;;;;;24.74;47.97;103054.72;5072193;28;20476;-60
2022/03/12 07:16:10;;;;;;;108.25;63.17;;;;;;;24.69;47.07;103046.09;5071886;28;20046;-60
2022/03/12 07:18:36;;;;;;;111.22;62.42;;;;;;;24.76;47.42;103044.41;5072051;28;20043;-61
2022/03/12 07:21:01;;;;;;;108.30;63.33;;;;;;;24.79;45.93;103052.34;5072113;28;20021;-60
2022/03/12 07:23:27;;;;;;;105.97;62.17;;;;;;;24.79;47.27;103046.84;5071857;28;20560;-60
2022/03/12 07:25:52;;;;;;;108.95;63.03;;;;;;;24.76;47.29;103051.81;5071969;28;20052;-60
2022/03/12 07:28:19;;;;;;;110.90;64.28;;;;;;;24.77;47.25;103048.03;5071621;28;20480;-60
2022/03/12 07:30:44;;;;;;;109.65;64.85;;;;;;;24.86;46.84;103038.81;5071605;28;20033;-60
2022/03/12 07:33:10;;;;;;;110.78;64.93;;;;;;;24.83;46.30;103059.22;5071915;28;20031;-60
2022/03/12 07:35:37;;;;;;;110.03;63.15;;;;;;;24.83;46.31;103052.88;5071876;28;20107;-60
2022/03/12 07:38:03;;;;;;;100.28;59.45;;;;;;;24.80;47.05;103054.06;5071931;28;20390;-59
2022/03/12 07:40:28;;;;;;;101.88;59.70;;;;;;;24.78;46.48;103047.84;5072763;28;20034;-60
2022/03/12 07:42:55;;;;;;;104.70;61.17;;;;;;;24.84;46.86;103022.44;5075747;28;20020;-60
2022/03/12 07:45:20;;;;;;;105.82;61.28;;;;;;;24.77;46.73;103040.63;5075335;28;20028;-60
2022/03/12 07:47:47;;;;;;;105.68;61.53;;;;;;;24.74;46.44;103032.72;5075626;28;20028;-60
2022/03/12 07:50:13;;;;;;;103.75;61.95;;;;;;;24.76;46.55;103030.66;5075292;28;20027;-60
2022/03/12 07:52:39;;;;;;;100.35;61.15;;;;;;;24.73;47.18;103030.13;5075549;28;20036;-60
2022/03/12 07:55:06;;;;;;;105.65;60.40;;;;;;;24.77;48.07;103026.88;5075496;28;20029;-60
2022/03/12 07:57:32;;;;;;;107.75;59.15;;;;;;;24.79;46.42;103034.97;5075300;28;20021;-59
2022/03/12 07:59:57;;;;;;;102.05;59.28;;;;;;;24.87;46.87;103033.16;5075132;28;20073;-60
2022/03/12 08:02:23;;;;;;;104.10;60.10;;;;;;;24.78;47.32;103034.09;5074756;28;20048;-60
2022/03/12 08:04:48;;;;;;;97.05;58.83;;;;;;;24.83;47.30;103023.47;5075353;28;20510;-59
2022/03/12 08:07:14;;;;;;;96.05;58.03;;;;;;;24.83;46.66;103037.22;5073682;28;20074;-60
2022/03/12 08:09:39;;;;;;;98.75;58.60;;;;;;;24.76;46.11;103041.66;5075553;28;20035;-60
2022/03/12 08:12:05;;;;;;;101.15;58.08;;;;;;;24.82;45.96;103024.50;5075111;28;20051;-60
2022/03/12 08:14:32;;;;;;;105.03;59.40;;;;;;;24.83;46.01;103022.59;5075147;28;20031;-60
2022/03/12 08:16:58;;;;;;;107.25;60.53;;;;;;;24.70;46.24;103028.56;5075092;28;20022;-60
2022/03/12 08:19:23;;;;;;;99.75;57.88;;;;;;;24.88;47.09;103029.38;5074821;28;20103;-60
2022/03/12 08:21:50;;;;;;;97.63;57.15;;;;;;;24.86;46.46;103033.31;5075044;28;20036;-60
2022/03/12 08:24:16;;;;;;;93.03;55.67;;;;;;;24.84;45.83;103021.56;5074636;28;20527;-60
2022/03/12 08:26:43;;;;;;;108.63;60.22;;;;;;;24.74;46.18;103027.22;5074936;28;20032;-60
2022/03/12 08:29:10;;;;;;;98.82;58.15;;;;;;;24.73;45.76;103025.47;5074417;28;20031;-60
2022/03/12 08:31:36;;;;;;;101.03;58.40;;;;;;;24.83;46.49;103014.34;5074569;28;20049;-60
2022/03/12 08:34:01;;;;;;;103.97;58.67;;;;;;;24.84;46.38;103011.44;5074765;28;20017;-60
2022/03/12 08:36:26;;;;;;;94.97;58.78;;;;;;;24.86;45.80;103020.41;5074369;28;20535;-60
2022/03/12 08:38:52;;;;;;;97.00;60.22;;;;;;;24.84;46.77;103019.69;5074742;28;20024;-60
2022/03/12 08:41:17;;;;;;;103.85;59.92;;;;;;;24.85;46.68;103021.41;5074467;28;20108;-60
2022/03/12 08:43:43;;;;;;;105.78;60.53;;;;;;;24.82;46.98;103024.50;5074641;28;20025;-60
2022/03/12 08:46:09;;;;;;;103.25;60.08;;;;;;;24.85;46.88;103026.06;5074303;28;20035;-59
2022/03/12 08:48:35;;;;;;;98.75;59.33;;;;;;;24.93;46.62;103019.75;5074458;28;20020;-60
2022/03/12 08:51:01;;;;;;;102.07;57.95;;;;;;;24.90;45.32;103024.56;5074126;28;20085;-60
2022/03/12 08:53:26;;;;;;;93.97;56.72;;;;;;;24.82;46.49;103029.13;5074168;28;20016;-59
2022/03/12 08:55:52;;;;;;;100.68;58.70;;;;;;;24.84;46.17;103027.09;5074434;28;20455;-60
2022/03/12 08:58:19;;;;;;;100.40;59.05;;;;;;;24.83;46.01;103017.97;5073729;28;20048;-60
2022/03/12 09:00:44;;;;;;;102.38;59.22;;;;;;;24.86;45.75;103025.06;5074096;28;20525;-60
2022/03/12 09:03:11;;;;;;;100.50;57.97;;;;;;;24.86;46.31;103023.16;5074181;28;20048;-60
2022/03/12 09:05:37;;;;;;;98.13;55.60;;;;;;;24.94;46.75;103018.72;5074053;28;20036;-60
2022/03/12 09:08:03;;;;;;;101.38;59.92;;;;;;;24.83;45.67;103030.84;5072913;28;20046;-60
2022/03/12 09:10:29;;;;;;;98.18;59.60;;;;;;;24.84;46.28;103016.94;5073724;28;20020;-59
2022/03/12 09:12:54;;;;;;;101.68;60.75;;;;;;;24.90;45.68;103027.31;5074102;28;20036;-60
2022/03/12 09:15:24;;;;;;;100.07;60.05;;;;;;;24.89;47.23;103025.59;5073793;28;20025;-60
2022/03/12 09:17:50;;;;;;;96.75;58.42;;;;;;;24.83;46.40;103019.84;5073969;28;20112;-59
2022/03/12 09:20:15;;;;;;;98.72;60.03;;;;;;;24.80;46.23;103018.28;5073477;28;20103;-61
2022/03/12 09:22:41;;;;;;;103.65;61.63;;;;;;;24.92;45.50;103023.53;5073915;28;20456;-60
2022/03/12 09:25:08;;;;;;;101.00;59.53;;;;;;;24.88;45.77;103021.13;5072406;28;20024;-60
2022/03/12 09:27:34;;;;;;;103.53;60.78;;;;;;;24.91;45.45;103017.16;5073568;28;20048;-60
2022/03/12 09:29:59;;;;;;;95.40;56.90;;;;;;;24.88;45.99;103021.13;5073431;28;20082;-60
2022/03/12 09:32:25;;;;;;;96.00;58.10;;;;;;;24.84;45.64;103016.94;5071195;28;20049;-60
2022/03/12 09:34:51;;;;;;;92.40;55.53;;;;;;;24.95;46.60;103015.81;5073665;28;20024;-60
2022/03/12 09:37:16;;;;;;;102.53;57.08;;;;;;;24.89;47.09;103020.09;5073316;28;20024;-60
2022/03/12 09:39:42;;;;;;;96.70;56.08;;;;;;;24.82;46.13;103019.00;5073598;28;20507;-60
2022/03/12 09:42:08;;;;;;;96.50;56.33;;;;;;;24.88;46.23;103018.34;5073237;28;20376;-60
2022/03/12 09:44:33;;;;;;;93.55;56.38;;;;;;;24.88;47.11;103018.34;5071595;28;20062;-60
2022/03/12 09:46:58;;;;;;;95.63;56.58;;;;;;;24.86;46.10;103023.16;5071125;28;20041;-60
2022/03/12 09:49:24;;;;;;;91.70;55.85;;;;;;;24.80;45.65;103020.19;5073099;28;20455;-59
2022/03/12 09:51:49;;;;;;;104.00;57.70;;;;;;;24.79;45.85;103018.47;5073272;28;20031;-60
2022/03/12 09:54:16;;;;;;;98.20;58.17;;;;;;;24.96;46.89;103024.91;5073073;28;20025;-60
2022/03/12 09:56:42;;;;;;;95.13;56.45;;;;;;;24.91;46.04;103025.41;5073119;28;20021;-60
2022/03/12 09:59:08;;;;;;;97.45;56.72;;;;;;;24.90;45.64;103024.56;5072946;28;20025;-60
2022/03/12 10:01:33;;;;;;;88.65;54.22;;;;;;;24.85;46.05;103029.66;5073288;28;20020;-60
2022/03/12 10:03:58;;;;;;;91.30;55.63;;;;;;;24.92;46.14;103029.91;5072382;28;20365;-60
2022/03/12 10:06:24;;;;;;;95.47;56.65;;;;;;;24.96;45.37;103024.91;5072789;28;20021;-60
2022/03/12 10:08:49;;;;;;;97.05;55.67;;;;;;;24.92;45.92;103021.63;5072857;28;20036;-60
2022/03/12 10:11:14;;;;;;;100.82;58.22;;;;;;;24.94;46.26;103024.22;5072749;28;20020;-60
2022/03/12 10:13:40;;;;;;;97.55;55.03;;;;;;;24.96;46.00;103024.91;5072871;28;20112;-60
2022/03/12 10:16:07;;;;;;;92.82;56.00;;;;;;;24.83;46.18;103023.47;5071641;28;20083;-61
2022/03/12 10:18:32;;;;;;;94.88;56.38;;;;;;;24.83;45.19;103019.84;5072962;28;20021;-60
2022/03/12 10:20:58;;;;;;;93.35;54.80;;;;;;;24.84;45.34;103021.56;5072793;28;20379;-60
2022/03/12 10:23:23;;;;;;;93.07;53.85;;;;;;;24.91;46.20;103022.66;5071289;28;20468;-60
2022/03/12 10:25:49;;;;;;;95.90;55.47;;;;;;;24.98;46.12;103022.88;5072600;28;20065;-60
2022/03/12 10:28:15;;;;;;;93.45;56.15;;;;;;;24.92;46.09;103018.91;5072238;28;20051;-60
2022/03/12 10:30:40;;;;;;;94.78;56.20;;;;;;;24.90;45.92;103015.44;5071329;28;20063;-60
2022/03/12 10:33:06;;;;;;;94.90;55.53;;;;;;;24.82;45.47;103019.00;5072682;28;20029;-60
2022/03/12 10:35:37;;;;;;;86.63;53.28;;;;;;;24.94;46.05;103004.97;5071143;28;20032;-60
2022/03/12 10:38:10;;;;;;;99.00;56.47;;;;;;;24.87;45.75;103005.63;5072634;28;20146;-60
2022/03/12 10:40:36;;;;;;;95.18;55.22;;;;;;;24.97;45.84;102999.13;5072521;28;20021;-60
2022/03/12 10:43:05;;;;;;;97.07;56.28;;;;;;;24.91;45.94;103014.41;5072732;28;20394;-61
2022/03/12 10:45:37;;;;;;;92.00;55.42;;;;;;;24.97;45.32;102999.13;5072286;28;20082;-60
2022/03/12 10:48:04;;;;;;;99.65;57.22;;;;;;;24.88;45.11;103007.34;5072586;28;20372;-61
2022/03/12 10:50:34;;;;;;;97.95;59.30;;;;;;;24.90;44.69;103009.94;5072124;28;20031;-60
2022/03/12 10:53:05;;;;;;;99.95;56.33;;;;;;;24.94;45.89;103013.22;5072317;28;20066;-60
2022/03/12 10:55:33;;;;;;;95.90;54.42;;;;;;;24.92;46.33;103007.03;5072135;28;20408;-60
2022/03/12 10:58:09;;;;;;;96.28;55.83;;;;;;;24.96;46.17;103003.78;5072175;28;20028;-60